Warning: Javascript must be enabled to use all the features on this page!


Page Loading - Please Wait...

Click to hideNews Bulletins

Peak Streamflow for the Nation

USGS 02315550 SUWANNEE RIVER AT SUWANNEE SPRINGS FLA

Suwannee County, Florida
Hydrologic Unit Code 03110201
Latitude  30°23'34", Longitude  82°56'00" NAD27
Drainage area 2,630.00  square miles
Contributing drainage area 2,630  square miles
Gage datum 0.00 feet above NGVD29
Output formats
Table
Graph
Tab-separated file
peakfq (watstore) format
Reselect output format
Water
Year
Date Gage
Height
(feet)
Stream-
flow
(cfs)
1961 1961-04-30 62.07 8,440
1962 1962-04-12 63.40 9,100
1963 1963-03-06 55.09 5,540
1964 1964-09-19 73.60 19,200
1966 1966-03-22 68.14 12,100
1967 1967-02-22 58.24 6,800
1968 1968-01-06 43.62 1,460
1969 1969-09-28 52.00 4,350
1970 1970-09-01 65.92 10,400
1971 1971-09-07 59.02 7,110
1972 1972-02-18 63.82 9,310
1973 1973-04-12 78.91 30,100
1974 1974-09-17 51.66 4,230
1975 1975-04-26 65.57 10,200
1976 1976-06-03 56.85 6,240
1977 1976-12-20 63.77 10,100
1978 1978-03-21 56.87 6,680
1979 1979-05-17 50.68 4,160
1980 1980-03-14 57.142 7,560
1981 1981-03-12 49.722 3,860
1982 1982-04-12 49.75 3,920
1983 1983-03-28 64.00 9,780
1984 1984-04-10 74.381 18,100
1985 1985-09-12 50.67 4,320
1986 1986-02-27 69.785 12,5001,2
1987 1987-03-13 64.812 10,3001
1988 1988-03-06   7,5101
1989 1988-10-04 42.22 1,180
1990 1990-03-03 51.34 4,080
1991 1991-03-18 68.45 12,500
1992 1992-08-29 49.772 4,180
1993 1993-01-27 61.262 8,130
1994 1994-02-13 59.712 8,700
1995 1994-10-24 56.542 6,280
1996 1996-04-01   4,5002
2012 2012-06-30 70.45 18,000
2013 2013-03-07 57.632 7,690
2014 2014-04-29 69.27 15,100
2015 2015-02-10 54.58 5,750
2016 2016-04-10 51.70 4,520
2017 2017-09-14 58.56 9,370
2018 2018-08-12 48.99 3,910
2019 2018-12-24 68.93 14,900
2020 2020-06-18 59.87 9,030
2021 2021-08-17 64.93 11,800
?
  Peak Gage-Height Qualification Codes.
?
  Peak Streamflow Qualification Codes.